METAR Data
IDs: Format: Raw Decoded Include TAF

Data at: 0904 UTC 20 Sep 2018

KMMI 200855Z AUTO 00000KT 8SM CLR 20/20 A3008 RMK A01
KMMI 200835Z AUTO 00000KT 9SM CLR 20/19 A3007 RMK A01
KMMI 200815Z AUTO 00000KT 9SM CLR 20/20 A3007 RMK A01
KMMI 200755Z AUTO 00000KT 7SM CLR 20/19 A3006 RMK A01
KMMI 200735Z AUTO 00000KT 5SM BR CLR 20/20 A3007 RMK A01
KMMI 200715Z AUTO 00000KT 9SM CLR 20/19 A3007 RMK A01
KMMI 200655Z AUTO 00000KT 8SM CLR 20/20 A3007 RMK A01
KMMI 200635Z AUTO 00000KT 7SM CLR 21/20 A3007 RMK A01
KMMI 200615Z AUTO 00000KT 10SM CLR 21/20 A3007 RMK A01
KMMI 200555Z AUTO 00000KT 10SM CLR 21/21 A3007 RMK A01
KMMI 200535Z AUTO 00000KT 10SM CLR 22/21 A3007 RMK A01
KMMI 200515Z AUTO 00000KT 10SM CLR 22/21 A3007 RMK A01
KMMI 200455Z AUTO 00000KT 10SM CLR 22/21 A3007 RMK A01
KMMI 200435Z AUTO 00000KT 10SM CLR 22/21 A3007 RMK A01
KMMI 200415Z AUTO 00000KT 10SM CLR 22/21 A3007 RMK A01
KMMI 200355Z AUTO 00000KT 10SM CLR 22/21 A3007 RMK A01
KMMI 200335Z AUTO 00000KT 10SM CLR 22/21 A3007 RMK A01
KMMI 200315Z AUTO 00000KT 10SM CLR 23/22 A3007 RMK A01
KMMI 200255Z AUTO 00000KT 10SM CLR 23/22 A3007 RMK A01
KMMI 200235Z AUTO 00000KT 10SM CLR 23/22 A3007 RMK A01
KMMI 200215Z AUTO 00000KT 10SM CLR 23/22 A3006 RMK A01
KMMI 200155Z AUTO 00000KT 10SM CLR 24/22 A3006 RMK A01
KMMI 200135Z AUTO 00000KT 10SM CLR 24/22 A3005 RMK A01
KMMI 200115Z AUTO 00000KT 10SM CLR 25/22 A3004 RMK A01
KMMI 200055Z AUTO 00000KT 10SM CLR 25/23 A3003 RMK A01
KMMI 200035Z AUTO 00000KT 10SM FEW060 SCT070 25/23 A3003 RMK A01
KMMI 200015Z AUTO 00000KT 10SM SCT060 BKN070 26/23 A3003 RMK A01
KMMI 192355Z AUTO 00000KT 10SM FEW060 26/23 A3002 RMK A01
KMMI 192335Z AUTO 00000KT 10SM CLR 27/23 A3001 RMK A01
KMMI 192315Z AUTO 00000KT 10SM CLR 28/24 A3001 RMK A01
KMMI 192255Z AUTO 00000KT 10SM CLR 30/22 A3001 RMK A01
KMMI 192235Z AUTO 00000KT 10SM CLR 31/21 A3001 RMK A01
KMMI 192215Z AUTO 00000KT 10SM CLR 32/20 A3001 RMK A01
KMMI 192155Z AUTO 00000KT 10SM CLR 32/20 A3001 RMK A01
KMMI 192135Z AUTO VRB03KT 10SM CLR 32/19 A3001 RMK A01
KMMI 192115Z AUTO 00000KT 10SM CLR 32/20 A3001 RMK A01
KMMI 192055Z AUTO 30003KT 10SM CLR 32/19 A3001 RMK A01
KMMI 192035Z AUTO 00000KT 10SM CLR 32/19 A3001 RMK A01
KMMI 192015Z AUTO 00000KT 10SM CLR 32/19 A3001 RMK A01
KMMI 191955Z AUTO VRB04KT 10SM FEW055 32/19 A3001 RMK A01
KMMI 191935Z AUTO 34004KT 10SM FEW055 32/19 A3002 RMK A01
KMMI 191915Z AUTO 34006KT 10SM CLR 32/19 A3002 RMK A01
KMMI 191855Z AUTO 00000KT 10SM FEW050 32/19 A3003 RMK A01
KMMI 191835Z AUTO 00000KT 10SM CLR 32/19 A3004 RMK A01
KMMI 191815Z AUTO VRB03KT 10SM FEW046 32/19 A3005 RMK A01
KMMI 191755Z AUTO 05004KT 10SM FEW046 31/20 A3005 RMK A01
KMMI 191730Z AUTO VRB04KT 10SM CLR 31/21 A3006 RMK A01
KMMI 191715Z AUTO 34004KT 10SM CLR 31/21 A3007 RMK A01
KMMI 191655Z AUTO VRB04KT 10SM CLR 31/21 A3007 RMK A01
KMMI 191635Z AUTO 00000KT 10SM CLR 30/21 A3007 RMK A01
KMMI 191615Z AUTO 00000KT 10SM CLR 30/20 A3008 RMK A01
KMMI 191555Z AUTO 00000KT 10SM CLR 29/21 A3008 RMK A01
KMMI 191535Z AUTO 00000KT 10SM CLR 29/22 A3008 RMK A01
KMMI 191515Z AUTO 00000KT 10SM CLR 28/22 A3008 RMK A01
KMMI 191455Z AUTO 00000KT 10SM CLR 27/21 A3008 RMK A01
KMMI 191435Z AUTO 00000KT 10SM CLR 25/21 A3009 RMK A01
KMMI 191415Z AUTO 00000KT 10SM CLR 25/21 A3009 RMK A01
KMMI 191355Z AUTO 00000KT 10SM CLR 24/21 A3008 RMK A01
KMMI 191335Z AUTO 00000KT 10SM FEW100 22/20 A3008 RMK A01
KMMI 191315Z AUTO 00000KT 10SM CLR 21/20 A3007 RMK A01
KMMI 191255Z AUTO 00000KT 10SM SCT110 21/20 A3007 RMK A01
KMMI 191235Z AUTO 00000KT 7SM SCT110 20/19 A3007 RMK A01
KMMI 191215Z AUTO 00000KT 8SM BKN110 19/18 A3007 RMK A01
KMMI 191155Z AUTO 00000KT 9SM FEW002 FEW110 18/18 A3006 RMK A01
KMMI 191135Z AUTO 00000KT 8SM BKN002 18/18 A3005 RMK A01
KMMI 191115Z AUTO 00000KT 9SM OVC002 18/18 A3004 RMK A01
KMMI 191055Z AUTO 00000KT 2 1/2SM BR SCT001 18/18 A3003 RMK A01
KMMI 191035Z AUTO 00000KT 6SM BR CLR 18/18 A3003 RMK A01
KMMI 191015Z AUTO 00000KT 5SM BR FEW002 18/18 A3002 RMK A01
KMMI 190955Z AUTO 00000KT 7SM BKN002 18/18 A3002 RMK A01
KMMI 190935Z AUTO 00000KT 3/4SM BR OVC001 18/18 A3001 RMK A01
KMMI 190915Z AUTO 00000KT 1 1/4SM BR BKN001 18/18 A3001 RMK A01
KMMI 190855Z AUTO 00000KT 6SM BR BKN002 19/19 A3001 RMK A01
KMMI 190835Z AUTO 00000KT 1/4SM FG OVC001 19/19 A3000 RMK A01
KMMI 190815Z AUTO 00000KT 3/4SM BR OVC002 19/19 A3000 RMK A01
KMMI 190755Z AUTO 00000KT 1/2SM BR OVC002 19/19 A3000 RMK A01
KMMI 190735Z AUTO 00000KT 1/4SM FG OVC002 19/19 A3000 RMK A01
KMMI 190715Z AUTO 00000KT 1/4SM FG OVC002 19/19 A3000 RMK A01
KMMI 190655Z AUTO 00000KT 6SM BR BKN002 19/19 A3000 RMK A01
KMMI 190635Z AUTO 00000KT 1 3/4SM BR BKN002 20/19 A3001 RMK A01 VIS 1/2V5
KMMI 190615Z AUTO 00000KT 7SM SCT002 20/19 A3001 RMK A01
KMMI 190555Z AUTO 00000KT 7SM BKN002 20/20 A3001 RMK A01
KMMI 190535Z AUTO 00000KT 7SM BKN002 20/20 A3001 RMK A01
KMMI 190515Z AUTO 00000KT 6SM BR FEW002 20/20 A3001 RMK A01
KMMI 190455Z AUTO 00000KT 5SM BR FEW002 20/20 A3002 RMK A01
KMMI 190435Z AUTO 00000KT 8SM FEW002 20/20 A3001 RMK A01
KMMI 190415Z AUTO 00000KT 7SM FEW002 21/20 A3001 RMK A01
KMMI 190355Z AUTO 00000KT 7SM CLR 21/20 A3001 RMK A01
KMMI 190335Z AUTO 00000KT 10SM CLR 21/20 A3001 RMK A01
KMMI 190315Z AUTO 00000KT 10SM CLR 21/21 A3000 RMK A01
KMMI 190255Z AUTO 00000KT 10SM CLR 21/21 A3000 RMK A01
KMMI 190235Z AUTO 00000KT 10SM CLR 21/21 A3000 RMK A01
KMMI 190215Z AUTO 00000KT 10SM CLR 22/21 A3000 RMK A01
KMMI 190155Z AUTO 00000KT 10SM CLR 22/21 A3000 RMK A01
KMMI 190135Z AUTO 00000KT 10SM CLR 22/21 A2999 RMK A01
KMMI 190115Z AUTO 00000KT 10SM CLR 22/21 A2999 RMK A01
KMMI 190055Z AUTO 00000KT 10SM CLR 23/22 A2998 RMK A01
KMMI 190035Z AUTO 00000KT 10SM CLR 23/22 A2997 RMK A01
KMMI 190015Z AUTO 00000KT 10SM CLR 24/22 A2997 RMK A01
KMMI 182350Z AUTO 00000KT 10SM CLR 25/23 A2997 RMK A01
KMMI 182335Z AUTO 00000KT 10SM CLR 26/23 A2997 RMK A01
KMMI 182315Z AUTO 00000KT 10SM CLR 28/22 A2997 RMK A01
KMMI 182255Z AUTO 00000KT 10SM CLR 28/21 A2997 RMK A01
KMMI 182235Z AUTO 00000KT 10SM CLR 30/20 A2997 RMK A01
KMMI 182215Z AUTO 00000KT 10SM SCT120 30/19 A2996 RMK A01
KMMI 182155Z AUTO VRB03KT 10SM BKN120 30/20 A2996 RMK A01
KMMI 182135Z AUTO 00000KT 10SM SCT120 31/20 A2996 RMK A01
KMMI 182115Z AUTO 35004KT 10SM FEW120 30/20 A2996 RMK A01